Time;durP1;ratioP1;P1;durP2;ratioP2;P2;SDS_P1;SDS_P2;PMS_P1;PMS_P2;Temp;Humidity;BMP_temperature;BMP_pressure;BME280_temperature;BME280_humidity;BME280_pressure;Samples;Min_cycle;Max_cycle;Signal;HPM_P1;HPM_P2
2022/10/21 00:02:06;;;;;;;5.83;4.00;;;4.20;99.90;;;;;;5071265;28;20232;-70
2022/10/21 00:04:33;;;;;;;5.23;3.93;;;4.20;99.90;;;;;;5071204;28;20215;-70
2022/10/21 00:07:00;;;;;;;6.30;3.70;;;4.20;99.90;;;;;;5069363;28;20571;-71
2022/10/21 00:09:26;;;;;;;6.03;4.07;;;4.20;99.90;;;;;;5071697;28;20231;-71
2022/10/21 00:11:53;;;;;;;5.60;3.90;;;4.20;99.90;;;;;;5069641;28;20204;-70
2022/10/21 00:14:21;;;;;;;5.37;4.10;;;4.20;99.90;;;;;;5071298;28;20189;-70
2022/10/21 00:16:48;;;;;;;5.27;4.00;;;4.20;99.90;;;;;;5070969;28;20200;-70
2022/10/21 00:19:15;;;;;;;6.77;4.03;;;4.20;99.90;;;;;;5071435;28;20300;-69
2022/10/21 00:21:42;;;;;;;5.80;4.37;;;4.20;99.90;;;;;;5070912;28;20207;-70
2022/10/21 00:24:09;;;;;;;6.00;4.40;;;4.20;99.90;;;;;;5075396;28;20573;-69
2022/10/21 00:26:35;;;;;;;6.73;4.10;;;4.20;99.90;;;;;;5075219;28;20569;-70
2022/10/21 00:29:02;;;;;;;6.60;4.00;;;4.10;99.90;;;;;;5075321;28;20555;-72
2022/10/21 00:31:32;;;;;;;8.83;4.20;;;4.10;99.90;;;;;;5073061;28;20220;-71
2022/10/21 00:33:59;;;;;;;5.70;4.30;;;4.10;99.90;;;;;;5074030;28;20258;-71
2022/10/21 00:36:26;;;;;;;7.40;4.30;;;4.10;99.90;;;;;;5073551;28;20686;-70
2022/10/21 00:38:53;;;;;;;5.87;4.33;;;4.00;99.90;;;;;;5074035;28;20205;-70
2022/10/21 00:41:20;;;;;;;5.70;4.07;;;3.90;99.90;;;;;;5075112;28;20204;-70
2022/10/21 00:43:56;;;;;;;6.10;4.23;;;3.90;99.90;;;;;;5074495;28;20225;-70
2022/10/21 00:46:35;;;;;;;5.87;4.10;;;3.90;99.90;;;;;;5074893;28;20567;-69
2022/10/21 00:49:06;;;;;;;8.20;4.40;;;3.80;99.90;;;;;;5071462;28;20204;-70
2022/10/21 00:51:33;;;;;;;5.83;4.40;;;3.80;99.90;;;;;;5072361;28;20205;-70
2022/10/21 00:54:02;;;;;;;7.03;4.40;;;3.70;99.90;;;;;;5074837;28;20200;-69
2022/10/21 00:56:31;;;;;;;6.87;4.20;;;3.70;99.90;;;;;;5074533;28;20211;-70
2022/10/21 00:59:00;;;;;;;6.80;4.30;;;3.60;99.90;;;;;;5073846;28;20214;-71
2022/10/21 01:01:27;;;;;;;9.13;4.43;;;3.60;99.90;;;;;;5074345;28;20204;-69
2022/10/21 01:03:55;;;;;;;7.07;4.20;;;3.50;99.90;;;;;;5074631;28;20240;-69
2022/10/21 01:06:25;;;;;;;6.33;4.23;;;3.50;99.90;;;;;;5074337;28;20204;-70
2022/10/21 01:08:54;;;;;;;5.43;4.20;;;3.50;99.90;;;;;;5073987;28;20571;-70
2022/10/21 01:11:22;;;;;;;6.57;4.13;;;3.40;99.90;;;;;;5074587;28;20228;-70
2022/10/21 01:14:07;;;;;;;6.43;4.53;;;3.40;99.90;;;;;;5074129;28;20244;-70
2022/10/21 01:16:44;;;;;;;7.17;4.30;;;3.40;99.90;;;;;;5074296;28;20208;-70
2022/10/21 01:19:32;;;;;;;6.50;4.47;;;3.40;99.90;;;;;;5073298;28;20200;-70
2022/10/21 01:22:08;;;;;;;5.77;4.33;;;3.40;99.90;;;;;;5074150;28;20189;-71
2022/10/21 01:25:10;;;;;;;6.40;4.60;;;3.30;99.90;;;;;;5074089;28;20573;-70
2022/10/21 01:27:43;;;;;;;8.17;4.37;;;3.30;99.90;;;;;;5072849;28;20589;-69
2022/10/21 01:30:25;;;;;;;6.10;4.37;;;3.20;99.90;;;;;;5073375;28;20205;-70
2022/10/21 01:33:21;;;;;;;5.90;4.13;;;3.20;99.90;;;;;;5073845;28;20181;-71
2022/10/21 01:35:52;;;;;;;7.23;4.53;;;3.20;99.90;;;;;;5073930;28;20191;-72
2022/10/21 01:38:24;;;;;;;9.03;4.53;;;3.10;99.90;;;;;;5072921;28;20204;-71
2022/10/21 01:40:57;;;;;;;8.20;4.30;;;3.10;99.90;;;;;;5073787;28;20193;-71
2022/10/21 01:43:32;;;;;;;7.30;4.50;;;3.00;99.90;;;;;;5073746;28;20212;-70
2022/10/21 01:46:04;;;;;;;5.63;4.30;;;3.00;99.90;;;;;;5073849;28;20188;-69
2022/10/21 01:48:35;;;;;;;5.83;4.30;;;3.00;99.90;;;;;;5072512;28;20197;-71
2022/10/21 01:51:04;;;;;;;9.37;4.77;;;3.00;99.90;;;;;;5073887;28;20188;-70
2022/10/21 01:53:40;;;;;;;9.00;4.60;;;2.90;99.90;;;;;;5073231;28;20209;-69
2022/10/21 01:56:09;;;;;;;5.70;4.13;;;2.90;99.90;;;;;;5073664;28;20606;-69
2022/10/21 01:58:39;;;;;;;6.03;3.83;;;2.90;99.90;;;;;;5070863;28;20208;-70
2022/10/21 02:01:11;;;;;;;5.00;4.00;;;2.80;99.90;;;;;;5073586;28;20568;-71
2022/10/21 02:03:42;;;;;;;5.73;3.80;;;2.80;99.90;;;;;;5072369;28;20685;-69
2022/10/21 02:06:08;;;;;;;10.13;4.17;;;2.80;99.90;;;;;;5072048;28;20274;-69
2022/10/21 02:08:35;;;;;;;7.53;4.17;;;2.80;99.90;;;;;;5073184;28;20204;-70
2022/10/21 02:11:06;;;;;;;6.37;4.13;;;2.80;99.90;;;;;;5073301;28;20205;-70
2022/10/21 02:13:38;;;;;;;5.83;4.07;;;2.80;99.90;;;;;;5072131;28;20601;-71
2022/10/21 02:16:09;;;;;;;6.57;4.10;;;2.80;99.90;;;;;;5072472;28;20616;-70
2022/10/21 02:18:36;;;;;;;7.07;4.00;;;2.80;99.90;;;;;;5072994;28;20204;-70
2022/10/21 02:21:07;;;;;;;8.27;3.93;;;2.80;99.90;;;;;;5073241;28;20215;-71
2022/10/21 02:23:40;;;;;;;6.43;4.27;;;2.80;99.90;;;;;;5072077;28;20701;-70
2022/10/21 02:26:07;;;;;;;7.97;4.47;;;2.80;99.90;;;;;;5073201;28;20193;-70
2022/10/21 02:28:34;;;;;;;6.63;3.93;;;2.80;99.90;;;;;;5072874;28;20205;-69
2022/10/21 02:31:10;;;;;;;7.73;4.20;;;2.80;99.90;;;;;;5073061;28;20225;-70
2022/10/21 02:33:47;;;;;;;5.33;4.00;;;2.80;99.90;;;;;;5072083;28;20200;-70
2022/10/21 02:36:16;;;;;;;8.40;4.60;;;2.80;99.90;;;;;;5072622;28;20604;-70
2022/10/21 02:38:47;;;;;;;7.13;4.40;;;2.70;99.90;;;;;;5072785;28;20326;-70
2022/10/21 02:41:18;;;;;;;10.83;4.93;;;2.70;99.90;;;;;;5071902;28;20208;-70
2022/10/21 02:43:49;;;;;;;6.93;4.50;;;2.80;99.90;;;;;;5072073;28;20211;-70
2022/10/21 02:46:17;;;;;;;7.40;4.70;;;2.80;99.90;;;;;;5071646;28;20189;-70
2022/10/21 02:48:46;;;;;;;6.47;4.33;;;2.70;99.90;;;;;;5072630;28;20558;-72
2022/10/21 02:51:14;;;;;;;9.57;5.00;;;2.70;99.90;;;;;;5070902;28;20203;-71
2022/10/21 02:53:41;;;;;;;7.80;5.33;;;2.80;99.90;;;;;;5071777;28;20208;-70
2022/10/21 02:56:08;;;;;;;6.77;4.73;;;2.80;99.90;;;;;;5072185;28;20792;-70
2022/10/21 02:58:35;;;;;;;6.73;4.73;;;2.80;99.90;;;;;;5072430;28;20215;-69
2022/10/21 03:01:02;;;;;;;7.30;4.53;;;2.70;99.90;;;;;;5071427;28;20216;-70
2022/10/21 03:03:30;;;;;;;7.80;4.87;;;2.70;99.90;;;;;;5071087;28;20231;-69
2022/10/21 03:05:57;;;;;;;6.87;4.90;;;2.70;99.90;;;;;;5072353;28;20205;-70
2022/10/21 03:08:24;;;;;;;9.17;5.07;;;2.70;99.90;;;;;;5071691;28;20212;-69
2022/10/21 03:10:52;;;;;;;9.60;5.40;;;2.70;99.90;;;;;;5070897;28;20207;-69
2022/10/21 03:13:19;;;;;;;8.60;5.47;;;2.70;99.90;;;;;;5070893;28;20606;-69
2022/10/21 03:15:45;;;;;;;8.70;4.90;;;2.70;99.90;;;;;;5072184;28;20207;-69
2022/10/21 03:18:12;;;;;;;6.90;4.90;;;2.70;99.90;;;;;;5071446;28;20205;-69
2022/10/21 03:20:40;;;;;;;7.33;5.07;;;2.60;99.90;;;;;;5071259;28;20220;-70
2022/10/21 03:23:07;;;;;;;7.93;5.60;;;2.60;99.90;;;;;;5071109;28;20197;-70
2022/10/21 03:25:34;;;;;;;8.80;5.30;;;2.60;99.90;;;;;;5071869;28;20204;-69
2022/10/21 03:28:01;;;;;;;9.13;5.40;;;2.60;99.90;;;;;;5071790;28;20197;-69
2022/10/21 03:30:28;;;;;;;10.70;5.97;;;2.60;99.90;;;;;;5071604;28;20698;-71
2022/10/21 03:32:54;;;;;;;9.40;6.20;;;2.60;99.90;;;;;;5070748;28;20208;-71
2022/10/21 03:35:21;;;;;;;9.40;6.13;;;2.50;99.90;;;;;;5071512;28;20282;-70
2022/10/21 03:37:49;;;;;;;9.73;6.50;;;2.60;99.90;;;;;;5071941;28;20239;-70
2022/10/21 03:40:16;;;;;;;10.63;6.30;;;2.50;99.90;;;;;;5071547;28;20204;-69
2022/10/21 03:42:43;;;;;;;9.77;6.50;;;2.50;99.90;;;;;;5070174;28;20204;-70
2022/10/21 03:45:11;;;;;;;8.80;5.60;;;2.50;99.90;;;;;;5071240;28;20236;-69
2022/10/21 03:47:38;;;;;;;9.20;5.83;;;2.50;99.90;;;;;;5071902;28;20205;-71
2022/10/21 03:50:06;;;;;;;9.17;5.53;;;2.50;99.90;;;;;;5070494;28;20201;-70
2022/10/21 03:52:33;;;;;;;8.00;6.03;;;2.50;99.90;;;;;;5069728;28;20204;-72
2022/10/21 03:55:01;;;;;;;8.83;5.50;;;2.50;99.90;;;;;;5071452;28;20204;-70
2022/10/21 03:57:28;;;;;;;9.43;5.87;;;2.50;99.90;;;;;;5071177;28;20311;-70
2022/10/21 03:59:55;;;;;;;10.60;6.10;;;2.40;99.90;;;;;;5071393;28;20212;-72
2022/10/21 04:02:22;;;;;;;10.23;6.40;;;2.40;99.90;;;;;;5069670;28;20227;-69
2022/10/21 04:04:48;;;;;;;11.63;6.93;;;2.40;99.90;;;;;;5071281;28;20239;-70
2022/10/21 04:07:15;;;;;;;10.80;6.47;;;2.30;99.90;;;;;;5071450;28;20200;-70
2022/10/21 04:09:42;;;;;;;11.13;6.57;;;2.30;99.90;;;;;;5071229;28;20211;-70
2022/10/21 04:12:10;;;;;;;11.77;6.83;;;2.30;99.90;;;;;;5069616;28;20240;-70
2022/10/21 04:14:37;;;;;;;11.10;6.47;;;2.30;99.90;;;;;;5071516;28;20224;-73
2022/10/21 04:17:04;;;;;;;11.10;7.27;;;2.30;99.90;;;;;;5071327;28;20686;-70
2022/10/21 04:19:31;;;;;;;13.47;7.87;;;2.30;99.90;;;;;;5071438;28;20688;-70
2022/10/21 04:21:58;;;;;;;11.30;7.40;;;2.30;99.90;;;;;;5070722;28;20574;-70
2022/10/21 04:24:24;;;;;;;14.17;7.47;;;2.30;99.90;;;;;;5068820;28;20217;-71
2022/10/21 04:26:51;;;;;;;13.70;8.47;;;2.30;99.90;;;;;;5068381;28;20205;-71
2022/10/21 04:29:19;;;;;;;16.63;8.53;;;2.30;99.90;;;;;;5070966;28;20207;-71
2022/10/21 04:31:46;;;;;;;14.43;8.60;;;2.30;99.90;;;;;;5071331;28;20205;-70
2022/10/21 04:34:13;;;;;;;17.43;8.83;;;2.30;99.90;;;;;;5071109;28;20197;-71
2022/10/21 04:36:40;;;;;;;12.90;7.80;;;2.20;99.90;;;;;;5069619;28;20204;-70
2022/10/21 04:39:07;;;;;;;15.27;8.73;;;2.20;99.90;;;;;;5070735;28;20205;-71
2022/10/21 04:41:34;;;;;;;16.70;9.37;;;2.20;99.90;;;;;;5071247;28;20204;-71
2022/10/21 04:44:01;;;;;;;10.67;7.60;;;2.20;99.90;;;;;;5069442;28;20231;-72
2022/10/21 04:46:29;;;;;;;13.47;8.07;;;2.20;99.90;;;;;;5071332;28;20556;-71
2022/10/21 04:48:56;;;;;;;13.30;8.83;;;2.20;99.90;;;;;;5074367;28;20200;-71
2022/10/21 04:51:23;;;;;;;11.97;7.03;;;2.20;99.90;;;;;;5072056;28;20718;-70
2022/10/21 04:53:50;;;;;;;12.87;7.50;;;2.20;99.90;;;;;;5071135;28;20205;-72
2022/10/21 04:56:16;;;;;;;12.10;8.20;;;2.20;99.90;;;;;;5080888;28;20206;-69
2022/10/21 04:58:43;;;;;;;11.80;7.57;;;2.20;99.90;;;;;;5091169;28;20211;-69
2022/10/21 05:01:10;;;;;;;10.57;7.43;;;2.20;99.90;;;;;;5074458;28;20383;-70
2022/10/21 05:03:38;;;;;;;11.57;7.00;;;2.20;99.90;;;;;;5070875;28;20207;-70
2022/10/21 05:06:05;;;;;;;18.50;6.87;;;2.20;99.90;;;;;;5069871;28;20205;-71
2022/10/21 05:08:32;;;;;;;9.43;6.30;;;2.20;99.90;;;;;;5072768;28;20224;-71
2022/10/21 05:11:00;;;;;;;10.07;7.17;;;2.30;99.90;;;;;;5080851;28;20200;-71
2022/10/21 05:13:27;;;;;;;11.90;7.50;;;2.30;99.90;;;;;;5083645;28;20228;-71
2022/10/21 05:15:58;;;;;;;12.23;7.67;;;2.40;99.90;;;;;;5081380;28;20203;-71
2022/10/21 05:18:24;;;;;;;14.13;7.27;;;2.40;99.90;;;;;;5080962;28;20201;-71
2022/10/21 05:20:53;;;;;;;12.10;7.57;;;2.50;99.90;;;;;;5078003;28;20209;-70
2022/10/21 05:23:20;;;;;;;10.77;6.80;;;2.50;99.90;;;;;;5069072;28;20233;-70
2022/10/21 05:25:49;;;;;;;11.73;7.03;;;2.60;99.90;;;;;;5070373;28;20227;-70
2022/10/21 05:28:16;;;;;;;12.63;7.83;;;2.60;99.90;;;;;;5079546;28;20219;-70
2022/10/21 05:30:43;;;;;;;10.80;7.00;;;2.70;99.90;;;;;;5084389;28;20555;-70
2022/10/21 05:33:10;;;;;;;11.53;6.23;;;2.70;99.90;;;;;;5083254;28;20200;-70
2022/10/21 05:35:36;;;;;;;10.77;6.10;;;2.70;99.90;;;;;;5084383;28;20212;-73
2022/10/21 05:38:05;;;;;;;9.63;5.80;;;2.70;99.90;;;;;;5073983;28;20205;-70
2022/10/21 05:40:32;;;;;;;10.87;6.60;;;2.70;99.90;;;;;;5087974;28;20227;-69
2022/10/21 05:42:59;;;;;;;8.63;6.27;;;2.80;99.90;;;;;;5085196;28;20197;-70
2022/10/21 05:45:26;;;;;;;10.00;6.13;;;2.80;99.90;;;;;;5057863;28;20225;-71
2022/10/21 05:47:53;;;;;;;11.10;5.90;;;2.80;99.90;;;;;;5073650;28;20565;-70
2022/10/21 05:50:20;;;;;;;9.50;6.50;;;2.80;99.90;;;;;;5079162;28;20192;-71
2022/10/21 05:52:47;;;;;;;11.20;6.57;;;2.90;99.90;;;;;;5073593;28;20201;-72
2022/10/21 05:55:15;;;;;;;9.53;6.33;;;3.00;99.90;;;;;;5072273;28;20205;-71
2022/10/21 05:57:42;;;;;;;9.07;5.70;;;3.00;99.90;;;;;;5072185;28;20224;-70
2022/10/21 06:00:11;;;;;;;9.27;6.37;;;3.00;99.90;;;;;;5072998;28;20200;-70
2022/10/21 06:02:37;;;;;;;10.90;6.33;;;3.10;99.90;;;;;;5074042;28;20231;-71
2022/10/21 06:05:05;;;;;;;13.07;6.87;;;3.10;99.90;;;;;;5073297;28;20227;-71
2022/10/21 06:07:31;;;;;;;10.50;6.67;;;3.20;99.90;;;;;;5073570;28;20684;-71
2022/10/21 06:09:58;;;;;;;10.37;6.07;;;3.20;99.90;;;;;;5073113;28;20197;-70
2022/10/21 06:12:26;;;;;;;12.27;6.30;;;3.30;99.90;;;;;;5072452;28;20232;-72
2022/10/21 06:14:54;;;;;;;11.90;7.57;;;3.30;99.90;;;;;;5072888;28;20207;-71
2022/10/21 06:17:21;;;;;;;11.87;6.60;;;3.40;99.90;;;;;;5071697;28;20212;-71
2022/10/21 06:19:48;;;;;;;11.63;7.07;;;3.40;99.90;;;;;;5073011;28;20570;-71
2022/10/21 06:22:15;;;;;;;12.00;6.70;;;3.40;99.90;;;;;;5073241;28;20559;-70
2022/10/21 06:24:42;;;;;;;14.53;8.10;;;3.50;99.90;;;;;;5072636;28;20228;-71
2022/10/21 06:27:08;;;;;;;18.97;8.70;;;3.60;99.90;;;;;;5072043;28;20649;-71
2022/10/21 06:29:37;;;;;;;16.60;8.70;;;3.60;99.90;;;;;;5073186;28;20243;-70
2022/10/21 06:32:04;;;;;;;15.70;7.77;;;3.70;99.90;;;;;;5073173;28;20226;-71
2022/10/21 06:34:30;;;;;;;13.67;8.30;;;3.70;99.90;;;;;;5070407;28;20539;-71
2022/10/21 06:36:57;;;;;;;15.50;8.70;;;3.70;99.90;;;;;;5071839;28;20213;-71
2022/10/21 06:39:24;;;;;;;13.57;8.30;;;3.70;99.90;;;;;;5071505;28;20215;-72
2022/10/21 06:41:51;;;;;;;11.73;7.83;;;3.80;99.90;;;;;;5072568;28;20211;-70
2022/10/21 06:44:18;;;;;;;13.13;8.37;;;3.90;99.90;;;;;;5072894;28;20582;-70
2022/10/21 06:46:46;;;;;;;16.73;9.53;;;3.90;99.90;;;;;;5072577;28;20209;-70
2022/10/21 06:49:12;;;;;;;11.07;8.10;;;4.00;99.90;;;;;;5071237;28;20216;-70
2022/10/21 06:51:39;;;;;;;16.53;8.47;;;4.10;99.90;;;;;;5070031;28;20201;-72
2022/10/21 06:54:06;;;;;;;11.53;7.83;;;4.20;99.90;;;;;;5069362;28;20224;-70
2022/10/21 06:56:33;;;;;;;11.37;7.07;;;4.20;99.90;;;;;;5069234;28;20205;-71
2022/10/21 06:59:00;;;;;;;9.33;6.87;;;4.30;99.90;;;;;;5072307;28;20209;-71
2022/10/21 12:06:03;;;;;;;4.27;2.10;;;8.90;99.90;;;;;;5124612;27;20586;-73
2022/10/21 12:08:36;;;;;;;2.67;1.97;;;9.70;99.90;;;;;;5109054;28;20297;-73
2022/10/21 12:11:09;;;;;;;2.63;1.80;;;9.80;99.90;;;;;;5109717;28;20531;-75
2022/10/21 12:13:42;;;;;;;3.93;2.30;;;9.90;99.90;;;;;;5094277;28;20196;-71
2022/10/21 12:16:11;;;;;;;4.27;2.43;;;10.00;99.90;;;;;;5102326;28;20207;-72
2022/10/21 12:18:43;;;;;;;2.73;2.00;;;10.10;99.90;;;;;;5107947;28;20192;-74
2022/10/21 12:21:16;;;;;;;3.07;2.10;;;10.10;99.90;;;;;;5110296;28;20207;-73
2022/10/21 12:23:44;;;;;;;3.23;2.27;;;10.10;99.90;;;;;;5108904;28;20256;-73
2022/10/21 12:26:19;;;;;;;3.87;2.57;;;10.20;99.90;;;;;;5111141;28;20207;-73
2022/10/21 12:28:54;;;;;;;5.10;2.80;;;10.20;99.90;;;;;;5108426;28;20192;-71
2022/10/21 12:31:34;;;;;;;3.90;2.40;;;10.20;99.90;;;;;;5107891;28;20201;-72
2022/10/21 12:34:03;;;;;;;3.10;2.00;;;10.20;99.90;;;;;;5095940;28;20191;-72
2022/10/21 12:36:43;;;;;;;3.20;2.03;;;10.20;99.90;;;;;;5109238;28;20218;-73
2022/10/21 12:39:16;;;;;;;3.70;2.07;;;10.20;99.90;;;;;;5109279;28;20292;-73
2022/10/21 12:41:43;;;;;;;3.33;1.97;;;10.20;99.90;;;;;;5109044;28;20675;-73
2022/10/21 12:44:23;;;;;;;2.83;2.00;;;10.20;99.90;;;;;;5109144;28;20235;-72
2022/10/21 12:46:52;;;;;;;2.93;1.90;;;10.20;99.90;;;;;;5109623;28;20195;-72
2022/10/21 12:49:25;;;;;;;2.67;2.00;;;10.20;99.90;;;;;;5108959;28;20676;-73
2022/10/21 12:51:57;;;;;;;3.30;2.03;;;10.20;99.90;;;;;;5109170;28;20460;-73
2022/10/21 12:54:27;;;;;;;3.40;2.20;;;10.10;99.90;;;;;;5108674;28;20667;-72
2022/10/21 12:57:01;;;;;;;3.03;1.90;;;10.10;99.90;;;;;;5108384;28;20204;-72
2022/10/21 12:59:35;;;;;;;5.57;2.70;;;10.20;99.90;;;;;;5108733;28;20629;-72
2022/10/21 13:02:21;;;;;;;5.67;2.30;;;10.10;99.90;;;;;;5108603;28;20203;-73
2022/10/21 13:04:51;;;;;;;3.80;2.23;;;10.10;99.90;;;;;;5098240;28;20237;-76
2022/10/21 13:07:38;;;;;;;4.87;2.60;;;10.10;99.90;;;;;;5095125;28;20204;-73
2022/10/21 13:10:29;;;;;;;3.77;2.67;;;10.10;99.90;;;;;;5095032;28;20188;-73
2022/10/21 13:13:37;;;;;;;5.30;2.97;;;10.00;99.90;;;;;;5095579;28;20196;-74
2022/10/21 13:16:36;;;;;;;5.73;2.60;;;10.10;99.90;;;;;;5073082;28;20205;-71
2022/10/21 13:19:04;;;;;;;4.37;2.80;;;10.00;99.90;;;;;;5088290;28;20192;-73
2022/10/21 13:21:41;;;;;;;5.13;2.77;;;10.00;99.90;;;;;;5094538;28;20200;-74
2022/10/21 13:24:25;;;;;;;4.93;2.90;;;10.00;99.90;;;;;;5094989;28;20218;-73
2022/10/21 13:26:54;;;;;;;4.00;2.37;;;10.00;99.90;;;;;;5089997;28;20210;-73
2022/10/21 13:29:41;;;;;;;3.70;2.47;;;10.00;99.90;;;;;;5094472;28;20672;-74
2022/10/21 13:32:30;;;;;;;3.83;2.50;;;10.00;99.90;;;;;;5074049;28;20208;-76
2022/10/21 13:35:30;;;;;;;3.53;2.50;;;9.90;99.90;;;;;;5074762;28;20274;-74
2022/10/21 13:38:00;;;;;;;4.33;2.67;;;9.90;99.90;;;;;;5083069;28;20634;-74
2022/10/21 13:40:32;;;;;;;5.20;2.73;;;9.80;99.90;;;;;;5094598;28;20230;-73
2022/10/21 13:43:02;;;;;;;3.53;2.50;;;9.80;99.90;;;;;;5094701;28;20208;-74
2022/10/21 13:45:32;;;;;;;4.90;2.50;;;9.80;99.90;;;;;;5094394;28;20348;-74
2022/10/21 13:48:01;;;;;;;7.33;2.80;;;9.80;99.90;;;;;;5091217;28;20188;-75
2022/10/21 13:50:32;;;;;;;9.40;3.83;;;9.70;99.90;;;;;;5094435;28;20214;-74
2022/10/21 13:53:01;;;;;;;7.50;3.57;;;9.70;99.90;;;;;;5094730;28;20193;-76
2022/10/21 13:55:29;;;;;;;3.83;2.70;;;9.70;99.90;;;;;;5094431;28;20663;-73
2022/10/21 13:57:56;;;;;;;4.23;2.70;;;9.70;99.90;;;;;;5094324;28;20661;-73
2022/10/21 14:00:25;;;;;;;6.37;2.70;;;9.70;99.90;;;;;;5093932;28;20215;-73
2022/10/21 14:02:55;;;;;;;4.57;2.73;;;9.60;99.90;;;;;;5093928;28;20204;-74
2022/10/21 14:05:35;;;;;;;4.53;2.77;;;9.60;99.90;;;;;;5091903;28;20243;-72
2022/10/21 14:08:03;;;;;;;4.27;2.77;;;9.60;99.90;;;;;;5093560;28;20192;-71
2022/10/21 14:10:34;;;;;;;5.03;2.90;;;9.60;99.90;;;;;;5093391;28;20211;-71
2022/10/21 14:13:01;;;;;;;3.70;2.57;;;9.50;99.90;;;;;;5078519;28;20668;-71
2022/10/21 14:15:37;;;;;;;5.00;3.10;;;9.50;99.90;;;;;;5075511;28;20208;-70
2022/10/21 14:18:04;;;;;;;4.10;2.60;;;9.50;99.90;;;;;;5075086;28;20283;-70
2022/10/21 14:20:34;;;;;;;4.30;2.50;;;9.50;99.90;;;;;;5093571;28;20200;-70
2022/10/21 14:23:02;;;;;;;3.97;2.50;;;9.50;99.90;;;;;;5093345;28;20204;-70
2022/10/21 14:25:31;;;;;;;4.67;2.70;;;9.40;99.90;;;;;;5093554;28;20232;-71
2022/10/21 14:27:59;;;;;;;5.47;2.87;;;9.40;99.90;;;;;;5093743;28;20200;-70
2022/10/21 14:30:28;;;;;;;4.73;2.50;;;9.40;99.90;;;;;;5091333;28;20646;-70
2022/10/21 14:32:58;;;;;;;3.53;2.50;;;9.30;99.90;;;;;;5093116;28;20294;-69
2022/10/21 14:35:27;;;;;;;3.77;2.67;;;9.30;99.90;;;;;;5090781;28;20648;-70
2022/10/21 14:37:56;;;;;;;4.47;2.70;;;9.20;99.90;;;;;;5084767;28;20196;-71
2022/10/21 14:40:30;;;;;;;3.80;2.53;;;9.10;99.90;;;;;;5073512;28;20570;-69
2022/10/21 14:43:00;;;;;;;4.50;2.70;;;9.10;99.90;;;;;;5073092;28;20205;-71
2022/10/21 14:45:29;;;;;;;10.13;6.60;;;9.00;99.90;;;;;;5073420;28;20704;-69
2022/10/21 14:48:08;;;;;;;10.37;5.87;;;8.90;99.90;;;;;;5073958;28;20311;-71
2022/10/21 14:50:36;;;;;;;9.07;5.53;;;8.80;99.90;;;;;;5073063;28;20626;-71
2022/10/21 14:53:03;;;;;;;9.57;4.50;;;8.70;99.90;;;;;;5072818;28;20200;-72
2022/10/21 14:55:30;;;;;;;7.73;3.00;;;8.60;99.90;;;;;;5080616;28;20230;-72
2022/10/21 14:58:04;;;;;;;4.53;3.00;;;8.60;99.90;;;;;;5092903;28;20200;-71
2022/10/21 15:00:35;;;;;;;5.70;3.00;;;8.50;99.90;;;;;;5093005;28;20192;-71
2022/10/21 15:03:02;;;;;;;5.87;3.37;;;8.50;99.90;;;;;;5092901;28;20188;-69
2022/10/21 15:05:36;;;;;;;5.17;3.27;;;8.40;99.90;;;;;;5092240;28;20231;-70
2022/10/21 15:08:31;;;;;;;8.00;3.30;;;8.30;99.90;;;;;;5092886;28;20231;-70
2022/10/21 15:11:22;;;;;;;5.13;2.90;;;8.20;99.90;;;;;;5053815;28;20265;-71
2022/10/21 15:14:06;;;;;;;4.53;2.90;;;8.20;99.90;;;;;;5092575;28;20196;-73
2022/10/21 15:16:33;;;;;;;5.43;3.37;;;8.10;99.90;;;;;;5092601;28;20196;-73
2022/10/21 15:19:07;;;;;;;5.43;3.30;;;8.10;99.90;;;;;;5092064;28;20206;-71
2022/10/21 15:21:37;;;;;;;6.07;4.07;;;8.10;99.90;;;;;;5092692;28;20752;-70
2022/10/21 15:24:05;;;;;;;6.33;4.40;;;8.00;99.90;;;;;;5091975;28;20203;-71
2022/10/21 15:26:35;;;;;;;8.80;5.30;;;8.00;99.90;;;;;;5092171;28;20227;-70
2022/10/21 15:29:14;;;;;;;9.03;5.50;;;7.90;99.90;;;;;;5092041;28;20204;-71
2022/10/21 15:31:41;;;;;;;9.37;5.17;;;7.90;99.90;;;;;;5092405;28;20196;-70
2022/10/21 15:34:14;;;;;;;9.63;4.83;;;7.80;99.90;;;;;;5092437;28;20224;-70
2022/10/21 15:36:41;;;;;;;9.83;5.70;;;7.80;99.90;;;;;;5092849;28;20192;-72
2022/10/21 15:39:08;;;;;;;9.80;5.83;;;7.70;99.90;;;;;;5091663;28;20226;-71
2022/10/21 15:41:35;;;;;;;13.30;7.47;;;7.70;99.90;;;;;;5092692;28;20234;-69
2022/10/21 15:44:03;;;;;;;18.20;8.80;;;7.70;99.90;;;;;;5092051;28;20218;-70
2022/10/21 15:46:40;;;;;;;21.13;10.80;;;7.60;99.90;;;;;;5092359;28;20222;-70
2022/10/21 15:49:15;;;;;;;23.03;11.73;;;7.60;99.90;;;;;;5092545;28;20184;-70
2022/10/21 15:51:42;;;;;;;27.77;12.33;;;7.50;99.90;;;;;;5072298;28;20654;-72
2022/10/21 15:54:09;;;;;;;33.40;15.37;;;7.50;99.90;;;;;;5079328;28;20214;-69
2022/10/21 15:56:36;;;;;;;36.60;16.33;;;7.40;99.90;;;;;;5091896;28;20287;-71
2022/10/21 15:59:02;;;;;;;29.97;14.33;;;7.40;99.90;;;;;;5091975;28;20210;-68
2022/10/21 16:01:29;;;;;;;30.17;14.57;;;7.40;99.90;;;;;;5091864;28;20200;-71
2022/10/21 16:03:57;;;;;;;29.83;14.10;;;7.30;99.90;;;;;;5091653;28;20232;-70
2022/10/21 16:06:24;;;;;;;34.83;16.80;;;7.30;99.90;;;;;;5091538;28;20219;-71
2022/10/21 16:08:51;;;;;;;41.90;18.53;;;7.20;99.90;;;;;;5091840;28;20309;-70
2022/10/21 16:11:21;;;;;;;39.37;18.27;;;7.20;99.90;;;;;;5092680;28;20197;-70
2022/10/21 16:13:49;;;;;;;38.67;17.73;;;7.20;99.90;;;;;;5090243;28;20208;-70
2022/10/21 16:16:19;;;;;;;40.43;19.03;;;7.10;99.90;;;;;;5091978;28;20208;-73
2022/10/21 16:18:46;;;;;;;42.63;18.47;;;7.10;99.90;;;;;;5092094;28;20277;-72
2022/10/21 16:21:15;;;;;;;45.73;18.60;;;7.00;99.90;;;;;;5092374;28;20214;-70
2022/10/21 16:23:42;;;;;;;41.77;18.70;;;7.00;99.90;;;;;;5091493;28;20208;-71
2022/10/21 16:26:15;;;;;;;52.60;23.30;;;7.00;99.90;;;;;;5091685;28;20216;-71
2022/10/21 16:28:43;;;;;;;57.90;23.93;;;6.90;99.90;;;;;;5091808;28;20195;-70
2022/10/21 16:31:12;;;;;;;70.37;29.33;;;6.90;99.90;;;;;;5091657;28;20673;-70
2022/10/21 16:33:39;;;;;;;73.30;27.83;;;6.80;99.90;;;;;;5091291;28;20568;-71
2022/10/21 16:36:16;;;;;;;67.70;27.60;;;6.80;99.90;;;;;;5091573;28;20203;-71
2022/10/21 16:38:45;;;;;;;60.83;26.23;;;6.70;99.90;;;;;;5091136;28;20192;-70
2022/10/21 16:41:13;;;;;;;56.80;26.60;;;6.70;99.90;;;;;;5093161;28;20210;-72
2022/10/21 16:43:39;;;;;;;65.63;27.53;;;6.70;99.90;;;;;;5095296;28;20211;-71
2022/10/21 16:46:13;;;;;;;67.23;29.20;;;6.60;99.90;;;;;;5095111;28;20250;-70
2022/10/21 16:48:42;;;;;;;78.93;33.43;;;6.60;99.90;;;;;;5095348;28;20199;-70
2022/10/21 16:51:09;;;;;;;73.60;30.73;;;6.50;99.90;;;;;;5094776;28;20207;-69
2022/10/21 16:53:37;;;;;;;72.10;30.77;;;6.50;99.90;;;;;;5094845;28;20286;-71
2022/10/21 16:56:05;;;;;;;55.50;24.03;;;6.40;99.90;;;;;;5095206;28;20196;-71
2022/10/21 16:58:31;;;;;;;53.73;23.20;;;6.40;99.90;;;;;;5094498;28;20592;-70
2022/10/21 17:00:58;;;;;;;55.77;24.67;;;6.30;99.90;;;;;;5093800;28;20204;-70
2022/10/21 17:03:25;;;;;;;55.73;24.40;;;6.30;99.90;;;;;;5095188;28;20309;-70
2022/10/21 17:05:52;;;;;;;60.60;27.47;;;6.20;99.90;;;;;;5093931;28;20251;-69
2022/10/21 17:08:19;;;;;;;62.33;29.47;;;6.20;99.90;;;;;;5094568;28;20218;-69
2022/10/21 17:10:47;;;;;;;54.97;28.23;;;6.10;99.90;;;;;;5094910;28;20204;-72
2022/10/21 17:13:13;;;;;;;57.60;29.97;;;6.10;99.90;;;;;;5095008;28;20227;-70
2022/10/21 17:15:40;;;;;;;55.83;28.73;;;6.00;99.90;;;;;;5093364;28;20223;-71
2022/10/21 17:18:07;;;;;;;55.93;27.97;;;6.00;99.90;;;;;;5093780;28;20290;-70
2022/10/21 17:20:34;;;;;;;52.03;28.13;;;6.00;99.90;;;;;;5094542;28;20202;-71
2022/10/21 17:23:01;;;;;;;64.10;34.83;;;6.00;99.90;;;;;;5093988;28;20208;-70
2022/10/21 17:25:30;;;;;;;57.50;31.43;;;5.90;99.90;;;;;;5094077;28;20227;-69
2022/10/21 17:27:58;;;;;;;55.40;30.17;;;5.90;99.90;;;;;;5094029;28;20200;-70
2022/10/21 17:30:25;;;;;;;57.40;31.00;;;5.90;99.90;;;;;;5095046;28;20680;-70
2022/10/21 17:32:52;;;;;;;54.07;31.27;;;5.90;99.90;;;;;;5094384;28;20208;-70
2022/10/21 17:35:19;;;;;;;64.90;32.10;;;5.90;99.90;;;;;;5093648;28;20235;-69
2022/10/21 17:37:46;;;;;;;57.30;31.03;;;5.90;99.90;;;;;;5092040;28;20204;-70
2022/10/21 17:40:15;;;;;;;57.47;29.90;;;5.80;99.90;;;;;;5094416;28;20257;-71
2022/10/21 17:42:42;;;;;;;52.47;29.57;;;5.80;99.90;;;;;;5094171;28;20719;-70
2022/10/21 17:45:12;;;;;;;53.43;28.57;;;5.80;99.90;;;;;;5093926;28;20285;-71
2022/10/21 17:47:39;;;;;;;58.77;29.50;;;5.80;99.90;;;;;;5078735;28;20261;-69
2022/10/21 17:50:07;;;;;;;63.50;32.00;;;5.80;99.90;;;;;;5083402;28;20531;-70
2022/10/21 17:52:34;;;;;;;58.90;29.13;;;5.80;99.90;;;;;;5093592;28;20200;-69
2022/10/21 17:55:01;;;;;;;56.17;29.70;;;5.70;99.90;;;;;;5093835;28;20204;-68
2022/10/21 17:57:29;;;;;;;57.37;30.50;;;5.70;99.90;;;;;;5093619;28;20208;-69
2022/10/21 17:59:56;;;;;;;59.97;29.97;;;5.70;99.90;;;;;;5094095;28;20307;-69
2022/10/21 18:02:27;;;;;;;60.27;31.53;;;5.70;99.90;;;;;;5088161;28;20213;-71
2022/10/21 18:04:54;;;;;;;56.50;31.57;;;5.60;99.90;;;;;;5076847;28;20292;-72
2022/10/21 18:07:21;;;;;;;67.40;37.13;;;5.60;99.90;;;;;;5091706;28;20219;-69
2022/10/21 18:09:48;;;;;;;60.83;31.37;;;5.60;99.90;;;;;;5078086;28;20201;-71